sensor_id;sensor_type;location;lat;lon;timestamp;P1;durP1;ratioP1;P2;durP2;ratioP2
29246;SDS011;16272;48.188;9.964;2023-05-07T00:01:26;8.03;;;3.97;;
29246;SDS011;16272;48.188;9.964;2023-05-07T00:03:51;8.32;;;3.83;;
29246;SDS011;16272;48.188;9.964;2023-05-07T00:06:16;8.80;;;4.20;;
29246;SDS011;16272;48.188;9.964;2023-05-07T00:08:42;9.20;;;3.87;;
29246;SDS011;16272;48.188;9.964;2023-05-07T00:11:07;10.43;;;3.97;;
29246;SDS011;16272;48.188;9.964;2023-05-07T00:13:32;8.93;;;3.90;;
29246;SDS011;16272;48.188;9.964;2023-05-07T00:16:00;10.60;;;3.45;;
29246;SDS011;16272;48.188;9.964;2023-05-07T00:18:29;9.05;;;3.67;;
29246;SDS011;16272;48.188;9.964;2023-05-07T00:20:55;8.07;;;3.87;;
29246;SDS011;16272;48.188;9.964;2023-05-07T00:23:21;8.30;;;3.50;;
29246;SDS011;16272;48.188;9.964;2023-05-07T00:25:47;8.38;;;3.70;;
29246;SDS011;16272;48.188;9.964;2023-05-07T00:28:12;7.50;;;3.70;;
29246;SDS011;16272;48.188;9.964;2023-05-07T00:30:37;8.67;;;4.03;;
29246;SDS011;16272;48.188;9.964;2023-05-07T00:33:03;8.70;;;3.27;;
29246;SDS011;16272;48.188;9.964;2023-05-07T00:35:28;9.20;;;3.70;;
29246;SDS011;16272;48.188;9.964;2023-05-07T00:37:54;9.55;;;3.45;;
29246;SDS011;16272;48.188;9.964;2023-05-07T00:40:20;8.37;;;3.40;;
29246;SDS011;16272;48.188;9.964;2023-05-07T00:42:45;8.07;;;3.90;;
29246;SDS011;16272;48.188;9.964;2023-05-07T00:45:12;9.40;;;3.92;;
29246;SDS011;16272;48.188;9.964;2023-05-07T00:47:41;7.85;;;3.88;;
29246;SDS011;16272;48.188;9.964;2023-05-07T00:50:06;8.93;;;3.97;;
29246;SDS011;16272;48.188;9.964;2023-05-07T00:52:33;8.50;;;3.83;;
29246;SDS011;16272;48.188;9.964;2023-05-07T00:55:00;9.95;;;3.95;;
29246;SDS011;16272;48.188;9.964;2023-05-07T00:57:29;10.77;;;3.93;;
29246;SDS011;16272;48.188;9.964;2023-05-07T01:00:01;10.55;;;3.85;;
29246;SDS011;16272;48.188;9.964;2023-05-07T01:02:27;7.80;;;3.63;;
29246;SDS011;16272;48.188;9.964;2023-05-07T01:04:52;10.27;;;3.80;;
29246;SDS011;16272;48.188;9.964;2023-05-07T01:07:17;8.43;;;3.60;;
29246;SDS011;16272;48.188;9.964;2023-05-07T01:09:43;10.00;;;3.77;;
29246;SDS011;16272;48.188;9.964;2023-05-07T01:12:08;8.00;;;3.60;;
29246;SDS011;16272;48.188;9.964;2023-05-07T01:14:35;8.23;;;3.40;;
29246;SDS011;16272;48.188;9.964;2023-05-07T01:17:00;8.33;;;3.53;;
29246;SDS011;16272;48.188;9.964;2023-05-07T01:19:26;8.53;;;3.43;;
29246;SDS011;16272;48.188;9.964;2023-05-07T01:21:53;7.10;;;3.00;;
29246;SDS011;16272;48.188;9.964;2023-05-07T01:24:27;6.90;;;3.25;;
29246;SDS011;16272;48.188;9.964;2023-05-07T01:26:52;8.83;;;4.23;;
29246;SDS011;16272;48.188;9.964;2023-05-07T01:29:18;7.60;;;3.77;;
29246;SDS011;16272;48.188;9.964;2023-05-07T01:31:43;8.23;;;3.50;;
29246;SDS011;16272;48.188;9.964;2023-05-07T01:34:09;11.30;;;3.47;;
29246;SDS011;16272;48.188;9.964;2023-05-07T01:36:37;8.30;;;3.90;;
29246;SDS011;16272;48.188;9.964;2023-05-07T01:39:04;8.90;;;3.55;;
29246;SDS011;16272;48.188;9.964;2023-05-07T01:41:30;9.25;;;3.97;;
29246;SDS011;16272;48.188;9.964;2023-05-07T01:43:56;8.30;;;3.83;;
29246;SDS011;16272;48.188;9.964;2023-05-07T01:46:23;8.20;;;3.92;;
29246;SDS011;16272;48.188;9.964;2023-05-07T01:48:49;10.30;;;3.63;;
29246;SDS011;16272;48.188;9.964;2023-05-07T01:51:15;11.40;;;4.15;;
29246;SDS011;16272;48.188;9.964;2023-05-07T01:53:41;9.97;;;4.50;;
29246;SDS011;16272;48.188;9.964;2023-05-07T01:56:06;10.43;;;3.83;;
29246;SDS011;16272;48.188;9.964;2023-05-07T01:58:32;10.53;;;3.90;;
29246;SDS011;16272;48.188;9.964;2023-05-07T02:00:57;8.80;;;3.97;;
29246;SDS011;16272;48.188;9.964;2023-05-07T02:03:23;8.80;;;3.63;;
29246;SDS011;16272;48.188;9.964;2023-05-07T02:05:48;8.27;;;3.83;;
29246;SDS011;16272;48.188;9.964;2023-05-07T02:08:13;8.77;;;3.87;;
29246;SDS011;16272;48.188;9.964;2023-05-07T02:10:39;8.53;;;4.00;;
29246;SDS011;16272;48.188;9.964;2023-05-07T02:13:04;10.53;;;4.27;;
29246;SDS011;16272;48.188;9.964;2023-05-07T02:15:30;9.33;;;3.93;;
29246;SDS011;16272;48.188;9.964;2023-05-07T02:18:05;8.80;;;3.88;;
29246;SDS011;16272;48.188;9.964;2023-05-07T02:20:32;12.93;;;4.10;;
29246;SDS011;16272;48.188;9.964;2023-05-07T02:22:58;9.13;;;4.10;;
29246;SDS011;16272;48.188;9.964;2023-05-07T02:25:23;8.27;;;4.00;;
29246;SDS011;16272;48.188;9.964;2023-05-07T02:27:48;7.77;;;3.80;;
29246;SDS011;16272;48.188;9.964;2023-05-07T02:30:14;9.30;;;3.77;;
29246;SDS011;16272;48.188;9.964;2023-05-07T02:32:39;7.63;;;3.77;;
29246;SDS011;16272;48.188;9.964;2023-05-07T02:35:05;8.45;;;3.90;;
29246;SDS011;16272;48.188;9.964;2023-05-07T02:37:31;7.50;;;3.37;;
29246;SDS011;16272;48.188;9.964;2023-05-07T02:39:56;8.97;;;3.93;;
29246;SDS011;16272;48.188;9.964;2023-05-07T02:42:21;9.97;;;4.23;;
29246;SDS011;16272;48.188;9.964;2023-05-07T02:44:46;8.23;;;3.55;;
29246;SDS011;16272;48.188;9.964;2023-05-07T02:47:13;9.57;;;3.80;;
29246;SDS011;16272;48.188;9.964;2023-05-07T02:49:40;9.40;;;3.80;;
29246;SDS011;16272;48.188;9.964;2023-05-07T02:52:05;8.15;;;3.63;;
29246;SDS011;16272;48.188;9.964;2023-05-07T02:54:31;6.83;;;3.23;;
29246;SDS011;16272;48.188;9.964;2023-05-07T02:56:56;7.63;;;3.28;;
29246;SDS011;16272;48.188;9.964;2023-05-07T02:59:22;7.57;;;3.80;;
29246;SDS011;16272;48.188;9.964;2023-05-07T03:01:48;8.18;;;4.15;;
29246;SDS011;16272;48.188;9.964;2023-05-07T03:04:13;8.57;;;4.00;;
29246;SDS011;16272;48.188;9.964;2023-05-07T03:06:38;10.70;;;4.50;;
29246;SDS011;16272;48.188;9.964;2023-05-07T03:09:04;9.73;;;4.20;;
29246;SDS011;16272;48.188;9.964;2023-05-07T03:11:29;9.27;;;3.80;;
29246;SDS011;16272;48.188;9.964;2023-05-07T03:13:55;8.52;;;4.03;;
29246;SDS011;16272;48.188;9.964;2023-05-07T03:16:20;9.23;;;4.20;;
29246;SDS011;16272;48.188;9.964;2023-05-07T03:18:46;9.93;;;4.20;;
29246;SDS011;16272;48.188;9.964;2023-05-07T03:21:11;9.55;;;4.05;;
29246;SDS011;16272;48.188;9.964;2023-05-07T03:23:37;9.33;;;4.30;;
29246;SDS011;16272;48.188;9.964;2023-05-07T03:26:02;10.90;;;4.17;;
29246;SDS011;16272;48.188;9.964;2023-05-07T03:28:27;8.67;;;4.03;;
29246;SDS011;16272;48.188;9.964;2023-05-07T03:30:53;8.73;;;4.00;;
29246;SDS011;16272;48.188;9.964;2023-05-07T03:33:18;9.33;;;4.20;;
29246;SDS011;16272;48.188;9.964;2023-05-07T03:35:43;8.57;;;3.83;;
29246;SDS011;16272;48.188;9.964;2023-05-07T03:38:09;12.07;;;4.00;;
29246;SDS011;16272;48.188;9.964;2023-05-07T03:40:34;9.90;;;4.30;;
29246;SDS011;16272;48.188;9.964;2023-05-07T03:42:59;7.80;;;3.80;;
29246;SDS011;16272;48.188;9.964;2023-05-07T03:45:25;8.55;;;4.40;;
29246;SDS011;16272;48.188;9.964;2023-05-07T03:47:50;10.33;;;3.93;;
29246;SDS011;16272;48.188;9.964;2023-05-07T03:50:16;8.23;;;4.13;;
29246;SDS011;16272;48.188;9.964;2023-05-07T03:52:41;10.50;;;4.03;;
29246;SDS011;16272;48.188;9.964;2023-05-07T03:55:07;8.87;;;4.10;;
29246;SDS011;16272;48.188;9.964;2023-05-07T03:57:32;9.77;;;3.88;;
29246;SDS011;16272;48.188;9.964;2023-05-07T03:59:58;9.03;;;3.90;;
29246;SDS011;16272;48.188;9.964;2023-05-07T04:02:23;9.53;;;4.07;;
29246;SDS011;16272;48.188;9.964;2023-05-07T04:04:48;7.73;;;3.43;;
29246;SDS011;16272;48.188;9.964;2023-05-07T04:07:14;8.07;;;3.85;;
29246;SDS011;16272;48.188;9.964;2023-05-07T04:09:40;8.87;;;4.03;;
29246;SDS011;16272;48.188;9.964;2023-05-07T04:12:05;10.07;;;3.77;;
29246;SDS011;16272;48.188;9.964;2023-05-07T04:14:31;8.47;;;3.77;;
29246;SDS011;16272;48.188;9.964;2023-05-07T04:16:57;8.50;;;4.13;;
29246;SDS011;16272;48.188;9.964;2023-05-07T04:19:23;8.23;;;4.03;;
29246;SDS011;16272;48.188;9.964;2023-05-07T04:21:49;8.53;;;3.90;;
29246;SDS011;16272;48.188;9.964;2023-05-07T04:24:14;7.87;;;3.70;;
29246;SDS011;16272;48.188;9.964;2023-05-07T04:26:39;9.98;;;4.15;;
29246;SDS011;16272;48.188;9.964;2023-05-07T04:29:05;9.20;;;4.03;;
29246;SDS011;16272;48.188;9.964;2023-05-07T04:31:30;9.00;;;4.20;;
29246;SDS011;16272;48.188;9.964;2023-05-07T04:33:56;10.82;;;4.38;;
29246;SDS011;16272;48.188;9.964;2023-05-07T04:36:21;11.00;;;4.80;;
29246;SDS011;16272;48.188;9.964;2023-05-07T04:38:47;11.57;;;4.90;;
29246;SDS011;16272;48.188;9.964;2023-05-07T04:41:12;9.80;;;4.40;;
29246;SDS011;16272;48.188;9.964;2023-05-07T04:43:37;9.00;;;4.43;;
29246;SDS011;16272;48.188;9.964;2023-05-07T04:46:03;8.97;;;4.50;;
29246;SDS011;16272;48.188;9.964;2023-05-07T04:48:28;11.10;;;4.60;;
29246;SDS011;16272;48.188;9.964;2023-05-07T04:50:54;10.40;;;4.75;;
29246;SDS011;16272;48.188;9.964;2023-05-07T04:53:19;9.80;;;4.67;;
29246;SDS011;16272;48.188;9.964;2023-05-07T04:55:45;9.30;;;4.68;;
29246;SDS011;16272;48.188;9.964;2023-05-07T04:58:11;9.47;;;4.87;;
29246;SDS011;16272;48.188;9.964;2023-05-07T05:00:37;11.68;;;5.13;;
29246;SDS011;16272;48.188;9.964;2023-05-07T05:03:03;10.48;;;4.80;;
29246;SDS011;16272;48.188;9.964;2023-05-07T05:05:29;9.47;;;4.90;;
29246;SDS011;16272;48.188;9.964;2023-05-07T05:07:54;10.20;;;5.30;;
29246;SDS011;16272;48.188;9.964;2023-05-07T05:10:19;9.67;;;5.20;;
29246;SDS011;16272;48.188;9.964;2023-05-07T05:12:44;11.60;;;5.40;;
29246;SDS011;16272;48.188;9.964;2023-05-07T05:15:11;9.87;;;5.03;;
29246;SDS011;16272;48.188;9.964;2023-05-07T05:17:37;12.80;;;5.45;;
29246;SDS011;16272;48.188;9.964;2023-05-07T05:20:03;10.53;;;5.80;;
29246;SDS011;16272;48.188;9.964;2023-05-07T05:22:29;12.02;;;6.05;;
29246;SDS011;16272;48.188;9.964;2023-05-07T05:24:56;10.70;;;5.57;;
29246;SDS011;16272;48.188;9.964;2023-05-07T05:27:21;11.13;;;5.80;;
29246;SDS011;16272;48.188;9.964;2023-05-07T05:29:46;12.73;;;5.90;;
29246;SDS011;16272;48.188;9.964;2023-05-07T05:32:11;10.53;;;5.23;;
29246;SDS011;16272;48.188;9.964;2023-05-07T05:34:37;10.00;;;5.53;;
29246;SDS011;16272;48.188;9.964;2023-05-07T05:37:02;11.50;;;6.27;;
29246;SDS011;16272;48.188;9.964;2023-05-07T05:39:27;11.43;;;6.20;;
29246;SDS011;16272;48.188;9.964;2023-05-07T05:41:52;11.97;;;6.77;;
29246;SDS011;16272;48.188;9.964;2023-05-07T05:44:18;11.97;;;6.67;;
29246;SDS011;16272;48.188;9.964;2023-05-07T05:46:43;10.68;;;5.85;;
29246;SDS011;16272;48.188;9.964;2023-05-07T05:49:08;11.67;;;6.60;;
29246;SDS011;16272;48.188;9.964;2023-05-07T05:51:34;11.33;;;6.13;;
29246;SDS011;16272;48.188;9.964;2023-05-07T05:53:59;12.67;;;6.13;;
29246;SDS011;16272;48.188;9.964;2023-05-07T05:56:25;11.03;;;6.50;;
29246;SDS011;16272;48.188;9.964;2023-05-07T05:58:50;11.05;;;6.35;;
29246;SDS011;16272;48.188;9.964;2023-05-07T06:01:16;11.80;;;6.37;;
29246;SDS011;16272;48.188;9.964;2023-05-07T06:03:42;11.35;;;6.10;;
29246;SDS011;16272;48.188;9.964;2023-05-07T06:06:08;13.30;;;6.43;;
29246;SDS011;16272;48.188;9.964;2023-05-07T06:08:33;13.40;;;6.60;;
29246;SDS011;16272;48.188;9.964;2023-05-07T06:10:58;11.63;;;6.30;;
29246;SDS011;16272;48.188;9.964;2023-05-07T06:13:24;12.30;;;7.15;;
29246;SDS011;16272;48.188;9.964;2023-05-07T06:15:50;12.67;;;7.03;;
29246;SDS011;16272;48.188;9.964;2023-05-07T06:18:15;11.97;;;6.77;;
29246;SDS011;16272;48.188;9.964;2023-05-07T06:20:40;11.90;;;6.40;;
29246;SDS011;16272;48.188;9.964;2023-05-07T06:23:06;12.13;;;6.72;;
29246;SDS011;16272;48.188;9.964;2023-05-07T06:25:31;12.00;;;6.90;;
29246;SDS011;16272;48.188;9.964;2023-05-07T06:27:57;12.37;;;7.30;;
29246;SDS011;16272;48.188;9.964;2023-05-07T06:30:22;11.50;;;6.90;;
29246;SDS011;16272;48.188;9.964;2023-05-07T06:32:47;11.77;;;7.10;;
29246;SDS011;16272;48.188;9.964;2023-05-07T06:35:12;13.80;;;7.23;;
29246;SDS011;16272;48.188;9.964;2023-05-07T06:37:38;12.57;;;7.33;;
29246;SDS011;16272;48.188;9.964;2023-05-07T06:40:05;12.48;;;7.32;;
29246;SDS011;16272;48.188;9.964;2023-05-07T06:42:31;12.20;;;7.45;;
29246;SDS011;16272;48.188;9.964;2023-05-07T06:44:56;12.13;;;7.00;;
29246;SDS011;16272;48.188;9.964;2023-05-07T06:47:21;13.70;;;8.00;;
29246;SDS011;16272;48.188;9.964;2023-05-07T06:49:46;12.07;;;6.77;;
29246;SDS011;16272;48.188;9.964;2023-05-07T06:52:12;12.17;;;7.47;;
29246;SDS011;16272;48.188;9.964;2023-05-07T06:54:37;14.77;;;7.50;;
29246;SDS011;16272;48.188;9.964;2023-05-07T06:57:02;11.03;;;6.60;;
29246;SDS011;16272;48.188;9.964;2023-05-07T06:59:28;12.13;;;7.00;;
29246;SDS011;16272;48.188;9.964;2023-05-07T07:01:53;15.73;;;8.40;;
29246;SDS011;16272;48.188;9.964;2023-05-07T07:04:18;13.03;;;8.00;;
29246;SDS011;16272;48.188;9.964;2023-05-07T07:06:44;11.90;;;6.63;;
29246;SDS011;16272;48.188;9.964;2023-05-07T07:09:10;12.35;;;7.32;;
29246;SDS011;16272;48.188;9.964;2023-05-07T07:11:36;12.00;;;6.80;;
29246;SDS011;16272;48.188;9.964;2023-05-07T07:14:01;12.63;;;6.97;;
29246;SDS011;16272;48.188;9.964;2023-05-07T07:16:26;12.40;;;6.82;;
29246;SDS011;16272;48.188;9.964;2023-05-07T07:18:52;12.60;;;6.70;;
29246;SDS011;16272;48.188;9.964;2023-05-07T07:21:17;13.07;;;7.20;;
29246;SDS011;16272;48.188;9.964;2023-05-07T07:23:42;11.43;;;6.90;;
29246;SDS011;16272;48.188;9.964;2023-05-07T07:26:07;11.53;;;7.00;;
29246;SDS011;16272;48.188;9.964;2023-05-07T07:28:33;12.33;;;6.97;;
29246;SDS011;16272;48.188;9.964;2023-05-07T07:30:58;12.33;;;7.27;;
29246;SDS011;16272;48.188;9.964;2023-05-07T07:33:23;12.27;;;7.10;;
29246;SDS011;16272;48.188;9.964;2023-05-07T07:35:49;13.03;;;6.80;;
29246;SDS011;16272;48.188;9.964;2023-05-07T07:38:14;11.93;;;6.72;;
29246;SDS011;16272;48.188;9.964;2023-05-07T07:40:40;12.37;;;6.43;;
29246;SDS011;16272;48.188;9.964;2023-05-07T07:43:05;10.70;;;6.60;;
29246;SDS011;16272;48.188;9.964;2023-05-07T07:45:31;10.30;;;6.45;;
29246;SDS011;16272;48.188;9.964;2023-05-07T07:47:56;11.20;;;6.33;;
29246;SDS011;16272;48.188;9.964;2023-05-07T07:50:21;10.60;;;5.73;;
29246;SDS011;16272;48.188;9.964;2023-05-07T07:52:47;10.93;;;6.10;;
29246;SDS011;16272;48.188;9.964;2023-05-07T07:55:13;9.98;;;6.13;;
29246;SDS011;16272;48.188;9.964;2023-05-07T07:57:38;10.57;;;6.20;;
29246;SDS011;16272;48.188;9.964;2023-05-07T08:00:04;9.90;;;6.07;;
29246;SDS011;16272;48.188;9.964;2023-05-07T08:02:31;10.15;;;6.22;;
29246;SDS011;16272;48.188;9.964;2023-05-07T08:04:56;9.60;;;5.43;;
29246;SDS011;16272;48.188;9.964;2023-05-07T08:07:21;12.33;;;5.67;;
29246;SDS011;16272;48.188;9.964;2023-05-07T08:09:47;10.07;;;5.95;;
29246;SDS011;16272;48.188;9.964;2023-05-07T08:12:13;9.30;;;5.40;;
29246;SDS011;16272;48.188;9.964;2023-05-07T08:14:38;10.38;;;5.60;;
29246;SDS011;16272;48.188;9.964;2023-05-07T08:17:04;9.60;;;5.40;;
29246;SDS011;16272;48.188;9.964;2023-05-07T08:19:29;9.17;;;5.77;;
29246;SDS011;16272;48.188;9.964;2023-05-07T08:21:55;10.50;;;5.67;;
29246;SDS011;16272;48.188;9.964;2023-05-07T08:24:20;10.30;;;5.72;;
29246;SDS011;16272;48.188;9.964;2023-05-07T08:26:46;8.27;;;4.77;;
29246;SDS011;16272;48.188;9.964;2023-05-07T08:29:12;8.33;;;4.80;;
29246;SDS011;16272;48.188;9.964;2023-05-07T08:31:37;8.25;;;4.70;;
29246;SDS011;16272;48.188;9.964;2023-05-07T08:34:04;8.38;;;4.53;;
29246;SDS011;16272;48.188;9.964;2023-05-07T08:36:30;8.50;;;4.63;;
29246;SDS011;16272;48.188;9.964;2023-05-07T08:38:56;9.52;;;4.50;;
29246;SDS011;16272;48.188;9.964;2023-05-07T08:41:21;8.77;;;4.87;;
29246;SDS011;16272;48.188;9.964;2023-05-07T08:43:47;8.43;;;4.80;;
29246;SDS011;16272;48.188;9.964;2023-05-07T08:46:20;9.35;;;5.10;;
29246;SDS011;16272;48.188;9.964;2023-05-07T08:48:49;8.00;;;4.88;;
29246;SDS011;16272;48.188;9.964;2023-05-07T08:51:17;9.50;;;5.20;;
29246;SDS011;16272;48.188;9.964;2023-05-07T08:53:44;9.00;;;4.88;;
29246;SDS011;16272;48.188;9.964;2023-05-07T08:56:10;9.68;;;5.60;;
29246;SDS011;16272;48.188;9.964;2023-05-07T08:58:36;8.50;;;4.88;;
29246;SDS011;16272;48.188;9.964;2023-05-07T09:01:03;8.53;;;5.00;;
29246;SDS011;16272;48.188;9.964;2023-05-07T09:03:32;7.70;;;4.45;;
29246;SDS011;16272;48.188;9.964;2023-05-07T09:05:58;8.52;;;4.80;;
29246;SDS011;16272;48.188;9.964;2023-05-07T09:08:26;8.10;;;4.30;;
29246;SDS011;16272;48.188;9.964;2023-05-07T09:10:52;9.55;;;4.43;;
29246;SDS011;16272;48.188;9.964;2023-05-07T09:13:18;8.60;;;5.23;;
29246;SDS011;16272;48.188;9.964;2023-05-07T09:15:44;7.70;;;4.57;;
29246;SDS011;16272;48.188;9.964;2023-05-07T09:18:09;8.87;;;4.27;;
29246;SDS011;16272;48.188;9.964;2023-05-07T09:20:39;8.40;;;4.07;;
29246;SDS011;16272;48.188;9.964;2023-05-07T09:23:06;7.50;;;4.32;;
29246;SDS011;16272;48.188;9.964;2023-05-07T09:25:33;10.00;;;4.97;;
29246;SDS011;16272;48.188;9.964;2023-05-07T09:28:03;11.32;;;5.90;;
29246;SDS011;16272;48.188;9.964;2023-05-07T09:30:33;8.38;;;4.95;;
29246;SDS011;16272;48.188;9.964;2023-05-07T09:32:59;8.00;;;4.47;;
29246;SDS011;16272;48.188;9.964;2023-05-07T09:35:26;9.25;;;5.22;;
29246;SDS011;16272;48.188;9.964;2023-05-07T09:37:53;9.65;;;4.80;;
29246;SDS011;16272;48.188;9.964;2023-05-07T09:40:20;9.80;;;4.85;;
29246;SDS011;16272;48.188;9.964;2023-05-07T09:42:52;9.93;;;5.20;;
29246;SDS011;16272;48.188;9.964;2023-05-07T09:45:22;8.60;;;4.87;;
29246;SDS011;16272;48.188;9.964;2023-05-07T09:47:51;8.60;;;4.93;;
29246;SDS011;16272;48.188;9.964;2023-05-07T09:50:19;10.32;;;5.57;;
29246;SDS011;16272;48.188;9.964;2023-05-07T09:52:51;8.23;;;4.97;;
29246;SDS011;16272;48.188;9.964;2023-05-07T09:55:17;8.13;;;4.53;;
29246;SDS011;16272;48.188;9.964;2023-05-07T09:57:43;9.83;;;5.17;;
29246;SDS011;16272;48.188;9.964;2023-05-07T10:00:10;8.48;;;4.88;;
29246;SDS011;16272;48.188;9.964;2023-05-07T10:02:35;9.63;;;5.22;;
29246;SDS011;16272;48.188;9.964;2023-05-07T10:05:02;7.90;;;5.00;;
29246;SDS011;16272;48.188;9.964;2023-05-07T10:07:28;9.07;;;4.53;;
29246;SDS011;16272;48.188;9.964;2023-05-07T10:09:53;7.50;;;4.00;;
29246;SDS011;16272;48.188;9.964;2023-05-07T10:12:22;9.48;;;5.20;;
29246;SDS011;16272;48.188;9.964;2023-05-07T10:14:48;7.40;;;4.60;;
29246;SDS011;16272;48.188;9.964;2023-05-07T10:17:16;7.57;;;4.17;;
29246;SDS011;16272;48.188;9.964;2023-05-07T10:19:46;8.15;;;4.50;;
29246;SDS011;16272;48.188;9.964;2023-05-07T10:22:12;7.10;;;4.03;;
29246;SDS011;16272;48.188;9.964;2023-05-07T10:24:38;8.05;;;4.68;;
29246;SDS011;16272;48.188;9.964;2023-05-07T10:27:11;9.13;;;4.50;;
29246;SDS011;16272;48.188;9.964;2023-05-07T10:29:49;7.45;;;4.20;;
29246;SDS011;16272;48.188;9.964;2023-05-07T10:35:06;7.97;;;4.40;;
29246;SDS011;16272;48.188;9.964;2023-05-07T10:37:38;8.32;;;4.15;;
29246;SDS011;16272;48.188;9.964;2023-05-07T10:40:05;7.53;;;4.30;;
29246;SDS011;16272;48.188;9.964;2023-05-07T10:42:32;9.30;;;4.60;;
29246;SDS011;16272;48.188;9.964;2023-05-07T10:44:57;8.63;;;4.47;;
29246;SDS011;16272;48.188;9.964;2023-05-07T10:47:23;8.53;;;4.63;;
29246;SDS011;16272;48.188;9.964;2023-05-07T10:52:14;7.83;;;4.30;;
29246;SDS011;16272;48.188;9.964;2023-05-07T10:54:43;8.60;;;4.90;;
29246;SDS011;16272;48.188;9.964;2023-05-07T10:59:57;8.70;;;4.40;;
29246;SDS011;16272;48.188;9.964;2023-05-07T11:02:22;8.43;;;4.25;;
29246;SDS011;16272;48.188;9.964;2023-05-07T11:07:57;8.38;;;4.50;;
29246;SDS011;16272;48.188;9.964;2023-05-07T11:13:16;7.93;;;4.40;;
29246;SDS011;16272;48.188;9.964;2023-05-07T11:15:46;7.50;;;4.10;;
29246;SDS011;16272;48.188;9.964;2023-05-07T11:18:13;7.40;;;4.07;;
29246;SDS011;16272;48.188;9.964;2023-05-07T11:20:44;9.18;;;4.50;;
29246;SDS011;16272;48.188;9.964;2023-05-07T11:28:29;7.70;;;4.00;;
29246;SDS011;16272;48.188;9.964;2023-05-07T11:30:56;9.00;;;4.80;;
29246;SDS011;16272;48.188;9.964;2023-05-07T11:33:23;7.32;;;4.30;;
29246;SDS011;16272;48.188;9.964;2023-05-07T11:35:50;8.80;;;4.37;;
29246;SDS011;16272;48.188;9.964;2023-05-07T11:38:18;8.13;;;4.60;;
29246;SDS011;16272;48.188;9.964;2023-05-07T11:40:54;8.65;;;4.25;;
29246;SDS011;16272;48.188;9.964;2023-05-07T11:43:21;8.18;;;4.07;;
29246;SDS011;16272;48.188;9.964;2023-05-07T11:45:46;7.83;;;4.10;;
29246;SDS011;16272;48.188;9.964;2023-05-07T11:48:13;7.85;;;4.03;;
29246;SDS011;16272;48.188;9.964;2023-05-07T11:50:52;7.93;;;4.20;;
29246;SDS011;16272;48.188;9.964;2023-05-07T11:53:26;8.37;;;4.47;;
29246;SDS011;16272;48.188;9.964;2023-05-07T11:55:53;8.55;;;4.00;;
29246;SDS011;16272;48.188;9.964;2023-05-07T11:58:21;6.68;;;3.70;;
29246;SDS011;16272;48.188;9.964;2023-05-07T12:00:48;7.28;;;4.18;;
29246;SDS011;16272;48.188;9.964;2023-05-07T12:03:16;8.45;;;4.15;;
29246;SDS011;16272;48.188;9.964;2023-05-07T12:05:43;7.37;;;3.70;;
29246;SDS011;16272;48.188;9.964;2023-05-07T12:08:15;6.82;;;3.63;;
29246;SDS011;16272;48.188;9.964;2023-05-07T12:10:41;8.07;;;3.80;;
29246;SDS011;16272;48.188;9.964;2023-05-07T12:13:20;7.50;;;4.05;;
29246;SDS011;16272;48.188;9.964;2023-05-07T12:15:50;10.18;;;4.00;;
29246;SDS011;16272;48.188;9.964;2023-05-07T12:18:20;7.47;;;3.67;;
29246;SDS011;16272;48.188;9.964;2023-05-07T12:20:47;8.25;;;3.67;;
29246;SDS011;16272;48.188;9.964;2023-05-07T12:23:13;6.78;;;3.72;;
29246;SDS011;16272;48.188;9.964;2023-05-07T12:25:39;8.43;;;4.30;;
29246;SDS011;16272;48.188;9.964;2023-05-07T12:28:12;8.45;;;3.65;;
29246;SDS011;16272;48.188;9.964;2023-05-07T12:30:38;6.83;;;3.60;;
29246;SDS011;16272;48.188;9.964;2023-05-07T12:33:04;8.10;;;3.97;;
29246;SDS011;16272;48.188;9.964;2023-05-07T12:35:31;7.20;;;3.33;;
29246;SDS011;16272;48.188;9.964;2023-05-07T12:38:01;7.78;;;4.30;;
29246;SDS011;16272;48.188;9.964;2023-05-07T12:40:42;8.20;;;4.00;;
29246;SDS011;16272;48.188;9.964;2023-05-07T12:46:04;8.40;;;4.07;;
29246;SDS011;16272;48.188;9.964;2023-05-07T12:48:31;8.60;;;4.28;;
29246;SDS011;16272;48.188;9.964;2023-05-07T12:50:57;7.70;;;3.58;;
29246;SDS011;16272;48.188;9.964;2023-05-07T12:53:25;7.50;;;4.07;;
29246;SDS011;16272;48.188;9.964;2023-05-07T12:55:53;7.18;;;3.72;;
29246;SDS011;16272;48.188;9.964;2023-05-07T12:58:30;6.97;;;3.55;;
29246;SDS011;16272;48.188;9.964;2023-05-07T13:00:58;7.50;;;4.15;;
29246;SDS011;16272;48.188;9.964;2023-05-07T13:05:52;8.30;;;4.00;;
29246;SDS011;16272;48.188;9.964;2023-05-07T13:08:24;7.55;;;3.53;;
29246;SDS011;16272;48.188;9.964;2023-05-07T13:10:49;6.82;;;3.75;;
29246;SDS011;16272;48.188;9.964;2023-05-07T13:13:15;7.10;;;3.47;;
29246;SDS011;16272;48.188;9.964;2023-05-07T13:15:40;7.33;;;4.13;;
29246;SDS011;16272;48.188;9.964;2023-05-07T13:18:05;6.60;;;3.93;;
29246;SDS011;16272;48.188;9.964;2023-05-07T13:20:31;7.90;;;3.90;;
29246;SDS011;16272;48.188;9.964;2023-05-07T13:22:56;8.93;;;3.90;;
29246;SDS011;16272;48.188;9.964;2023-05-07T13:25:21;7.57;;;3.77;;
29246;SDS011;16272;48.188;9.964;2023-05-07T13:27:46;7.10;;;3.60;;
29246;SDS011;16272;48.188;9.964;2023-05-07T13:30:12;8.30;;;3.70;;
29246;SDS011;16272;48.188;9.964;2023-05-07T13:32:37;10.40;;;3.20;;
29246;SDS011;16272;48.188;9.964;2023-05-07T13:35:03;7.47;;;3.50;;
29246;SDS011;16272;48.188;9.964;2023-05-07T13:37:29;7.13;;;3.60;;
29246;SDS011;16272;48.188;9.964;2023-05-07T13:39:54;7.37;;;3.70;;
29246;SDS011;16272;48.188;9.964;2023-05-07T13:42:20;6.90;;;3.43;;
29246;SDS011;16272;48.188;9.964;2023-05-07T13:44:45;7.00;;;3.77;;
29246;SDS011;16272;48.188;9.964;2023-05-07T13:47:11;6.50;;;3.58;;
29246;SDS011;16272;48.188;9.964;2023-05-07T13:49:36;6.73;;;3.37;;
29246;SDS011;16272;48.188;9.964;2023-05-07T13:52:01;7.73;;;3.93;;
29246;SDS011;16272;48.188;9.964;2023-05-07T13:54:27;7.67;;;3.40;;
29246;SDS011;16272;48.188;9.964;2023-05-07T13:56:52;7.82;;;3.28;;
29246;SDS011;16272;48.188;9.964;2023-05-07T13:59:18;7.93;;;3.80;;
29246;SDS011;16272;48.188;9.964;2023-05-07T14:01:43;7.03;;;2.90;;
29246;SDS011;16272;48.188;9.964;2023-05-07T14:04:08;6.60;;;3.17;;
29246;SDS011;16272;48.188;9.964;2023-05-07T14:06:33;6.83;;;3.87;;
29246;SDS011;16272;48.188;9.964;2023-05-07T14:08:59;7.47;;;3.63;;
29246;SDS011;16272;48.188;9.964;2023-05-07T14:11:25;6.90;;;3.20;;
29246;SDS011;16272;48.188;9.964;2023-05-07T14:13:50;6.77;;;3.33;;
29246;SDS011;16272;48.188;9.964;2023-05-07T14:16:15;6.63;;;3.00;;
29246;SDS011;16272;48.188;9.964;2023-05-07T14:18:40;7.00;;;3.20;;
29246;SDS011;16272;48.188;9.964;2023-05-07T14:21:06;6.87;;;2.90;;
29246;SDS011;16272;48.188;9.964;2023-05-07T14:23:31;7.45;;;3.30;;
29246;SDS011;16272;48.188;9.964;2023-05-07T14:25:57;6.77;;;3.30;;
29246;SDS011;16272;48.188;9.964;2023-05-07T14:28:23;6.57;;;2.80;;
29246;SDS011;16272;48.188;9.964;2023-05-07T14:30:48;6.10;;;3.00;;
29246;SDS011;16272;48.188;9.964;2023-05-07T14:33:14;7.33;;;3.23;;
29246;SDS011;16272;48.188;9.964;2023-05-07T14:35:39;6.73;;;3.53;;
29246;SDS011;16272;48.188;9.964;2023-05-07T14:38:04;6.37;;;3.27;;
29246;SDS011;16272;48.188;9.964;2023-05-07T14:40:30;7.10;;;2.90;;
29246;SDS011;16272;48.188;9.964;2023-05-07T14:42:55;7.27;;;3.40;;
29246;SDS011;16272;48.188;9.964;2023-05-07T14:45:22;6.85;;;3.20;;
29246;SDS011;16272;48.188;9.964;2023-05-07T14:47:47;7.50;;;3.10;;
29246;SDS011;16272;48.188;9.964;2023-05-07T14:50:12;6.87;;;3.40;;
29246;SDS011;16272;48.188;9.964;2023-05-07T14:52:38;6.80;;;3.10;;
29246;SDS011;16272;48.188;9.964;2023-05-07T14:55:03;10.73;;;3.30;;
29246;SDS011;16272;48.188;9.964;2023-05-07T14:57:29;6.63;;;2.57;;
29246;SDS011;16272;48.188;9.964;2023-05-07T14:59:55;8.38;;;3.35;;
29246;SDS011;16272;48.188;9.964;2023-05-07T15:02:20;8.87;;;2.73;;